createdAt,value
2023-07-04T00:28:18.655Z,99698.03
2023-07-04T00:29:51.930Z,99695.28
2023-07-04T00:31:27.034Z,99702.25
2023-07-04T00:32:59.228Z,99702.25
2023-07-04T00:34:31.377Z,99705.78
2023-07-04T00:36:08.921Z,99703.34
2023-07-04T00:37:40.959Z,99709.53
2023-07-04T00:39:13.027Z,99700.88
2023-07-04T00:40:45.751Z,99696.59
2023-07-04T00:42:17.711Z,99708.00
2023-07-04T00:43:59.250Z,99703.84
2023-07-04T00:45:37.062Z,99698.78
2023-07-04T00:47:23.415Z,99704.28
2023-07-04T00:48:55.710Z,99697.41
2023-07-04T00:50:28.727Z,99702.84
2023-07-04T00:52:11.005Z,99704.72
2023-07-04T00:53:43.484Z,99705.66
2023-07-04T00:55:16.204Z,99699.66
2023-07-04T00:56:48.179Z,99697.94
2023-07-04T00:58:20.251Z,99693.63
2023-07-04T00:59:54.105Z,99692.78
2023-07-04T01:03:10.746Z,99700.50
2023-07-04T01:04:43.364Z,99699.66
2023-07-04T01:06:21.174Z,99699.53
2023-07-04T01:08:00.433Z,99702.94
2023-07-04T01:09:33.119Z,99690.75
2023-07-04T01:11:06.433Z,99698.78
2023-07-04T01:12:38.635Z,99696.09
2023-07-04T01:14:20.311Z,99698.00
2023-07-04T01:15:52.242Z,99698.13
2023-07-04T01:17:25.402Z,99697.38
2023-07-04T01:18:57.665Z,99698.19
2023-07-04T01:20:30.069Z,99704.28
2023-07-04T01:22:14.090Z,99705.22
2023-07-04T01:23:50.963Z,99702.59
2023-07-04T01:25:25.646Z,99709.72
2023-07-04T01:26:58.340Z,99710.81
2023-07-04T01:28:31.056Z,99710.81
2023-07-04T01:31:42.570Z,99719.53
2023-07-04T01:33:15.092Z,99715.19
2023-07-04T01:34:47.506Z,99713.50
2023-07-04T01:37:52.173Z,99712.75
2023-07-04T01:39:24.172Z,99720.69
2023-07-04T01:40:56.138Z,99713.00
2023-07-04T01:42:32.680Z,99711.38
2023-07-04T01:44:06.013Z,99710.53
2023-07-04T01:45:38.047Z,99711.38
2023-07-04T01:47:10.176Z,99710.53
2023-07-04T01:48:42.792Z,99714.88
2023-07-04T01:50:14.887Z,99713.16
2023-07-04T01:51:46.965Z,99714.19
2023-07-04T01:53:18.977Z,99708.16
2023-07-04T01:54:51.017Z,99718.66
2023-07-04T01:56:23.155Z,99714.25
2023-07-04T01:57:55.133Z,99715.97
2023-07-04T01:59:27.095Z,99709.84
2023-07-04T02:00:59.372Z,99719.50
2023-07-04T02:02:31.377Z,99712.63
2023-07-04T02:04:03.419Z,99720.50
2023-07-04T02:05:35.349Z,99714.56
2023-07-04T02:07:07.249Z,99718.13
2023-07-04T02:08:39.169Z,99715.59
2023-07-04T02:10:11.046Z,99717.38
2023-07-04T02:11:42.966Z,99713.03
2023-07-04T02:13:15.502Z,99716.69
2023-07-04T02:14:47.519Z,99720.16
2023-07-04T02:16:19.510Z,99715.84
2023-07-04T02:17:52.247Z,99717.63
2023-07-04T02:19:24.218Z,99718.47
2023-07-04T02:20:57.698Z,99720.25
2023-07-04T02:22:29.688Z,99715.78
2023-07-04T02:24:02.265Z,99714.81
2023-07-04T02:25:34.212Z,99711.38
2023-07-04T02:27:06.209Z,99718.53
2023-07-04T02:28:38.259Z,99712.47
2023-07-04T02:30:10.409Z,99718.63
2023-07-04T02:31:42.472Z,99720.41
2023-07-04T02:33:14.560Z,99714.31
2023-07-04T02:34:46.761Z,99724.03
2023-07-04T02:36:18.730Z,99724.03
2023-07-04T02:37:50.668Z,99724.03
2023-07-04T02:39:23.084Z,99723.97
2023-07-04T02:40:55.263Z,99718.88
2023-07-04T02:42:27.747Z,99720.66
2023-07-04T02:44:00.082Z,99722.47
2023-07-04T02:45:32.043Z,99721.63
2023-07-04T02:47:04.235Z,99719.16
2023-07-04T02:48:36.333Z,99720.16
2023-07-04T02:50:08.491Z,99717.53
2023-07-04T02:51:40.525Z,99715.00
2023-07-04T02:53:12.709Z,99716.78
2023-07-04T02:54:44.684Z,99722.88
2023-07-04T02:56:16.889Z,99718.63
2023-07-04T02:57:48.918Z,99723.09
2023-07-04T02:59:20.925Z,99720.41
2023-07-04T03:00:53.741Z,99724.81
2023-07-04T03:02:26.156Z,99715.25
2023-07-04T03:03:58.494Z,99724.06
2023-07-04T03:05:30.530Z,99715.41
2023-07-04T03:07:02.466Z,99721.50
2023-07-04T03:08:34.551Z,99719.66
2023-07-04T03:10:06.976Z,99720.50
2023-07-04T03:11:38.999Z,99717.88
2023-07-04T03:13:11.017Z,99712.69
2023-07-04T03:14:43.050Z,99713.56
2023-07-04T03:16:14.996Z,99710.94
2023-07-04T03:17:47.118Z,99713.38
2023-07-04T03:19:19.159Z,99711.47
2023-07-04T03:20:51.804Z,99710.44
2023-07-04T03:22:24.156Z,99712.84
2023-07-04T03:23:56.365Z,99715.41
2023-07-04T03:25:28.422Z,99721.34
2023-07-04T03:27:00.402Z,99719.38
2023-07-04T03:28:32.392Z,99715.78
2023-07-04T03:30:05.054Z,99713.03
2023-07-04T03:31:37.236Z,99714.56
2023-07-04T03:33:09.362Z,99711.13
2023-07-04T03:34:41.331Z,99712.06
2023-07-04T03:36:13.493Z,99717.44
2023-07-04T03:37:45.503Z,99716.53
2023-07-04T03:39:18.257Z,99719.16
2023-07-04T03:40:50.599Z,99718.13
2023-07-04T03:42:22.871Z,99725.06
2023-07-04T03:43:54.918Z,99716.28
2023-07-04T03:45:26.888Z,99719.66
2023-07-04T03:46:58.877Z,99710.78
2023-07-04T03:48:30.893Z,99722.72
2023-07-04T03:50:02.956Z,99722.63
2023-07-04T03:51:34.919Z,99719.00
2023-07-04T03:53:06.865Z,99716.22
2023-07-04T03:54:38.894Z,99719.53
2023-07-04T03:56:10.843Z,99716.72
2023-07-04T03:57:43.048Z,99717.41
2023-07-04T03:59:15.027Z,99714.63
2023-07-04T04:00:51.738Z,99715.22
2023-07-04T04:02:24.394Z,99719.34
2023-07-04T04:03:56.761Z,99720.88
2023-07-04T04:05:29.320Z,99726.91
2023-07-04T04:07:01.312Z,99721.56
2023-07-04T04:08:33.328Z,99720.53
2023-07-04T04:10:05.658Z,99721.22
2023-07-04T04:11:37.626Z,99732.38
2023-07-04T04:13:10.597Z,99724.34
2023-07-04T04:14:42.615Z,99735.44
2023-07-04T04:16:14.749Z,99735.28
2023-07-04T04:17:46.876Z,99723.56
2023-07-04T04:20:58.393Z,99726.53
2023-07-04T04:22:30.430Z,99724.53
2023-07-04T04:24:02.386Z,99724.16
2023-07-04T04:25:39.804Z,99720.31
2023-07-04T04:27:14.334Z,99722.50
2023-07-04T04:28:46.403Z,99724.88
2023-07-04T04:30:18.528Z,99730.59
2023-07-04T04:31:50.768Z,99727.53
2023-07-04T04:33:22.814Z,99730.66
2023-07-04T04:34:55.073Z,99728.41
2023-07-04T04:36:27.042Z,99728.88
2023-07-04T04:37:59.190Z,99728.53
2023-07-04T04:39:31.501Z,99726.41
2023-07-04T04:41:05.155Z,99736.53
2023-07-04T04:42:37.178Z,99737.97
2023-07-04T04:44:10.253Z,99740.22
2023-07-04T04:45:43.282Z,99738.06
2023-07-04T04:47:15.276Z,99737.69
2023-07-04T04:48:47.302Z,99739.03
2023-07-04T04:50:19.338Z,99746.53
2023-07-04T04:51:54.409Z,99747.84
2023-07-04T04:53:26.696Z,99743.91
2023-07-04T04:54:59.233Z,99745.94
2023-07-04T04:56:31.295Z,99730.59
2023-07-04T04:58:03.306Z,99747.59
2023-07-04T04:59:35.427Z,99741.00
2023-07-04T05:01:18.486Z,99738.03
2023-07-04T05:02:50.489Z,99748.91
2023-07-04T05:04:22.550Z,99749.25
2023-07-04T05:05:54.588Z,99749.63
2023-07-04T05:07:27.099Z,99749.84
2023-07-04T05:09:00.832Z,99743.13
2023-07-04T05:10:33.025Z,99747.78
2023-07-04T05:12:05.277Z,99750.88
2023-07-04T05:13:38.110Z,99746.75
2023-07-04T05:15:10.433Z,99745.28
2023-07-04T05:16:42.547Z,99744.00
2023-07-04T05:18:14.574Z,99739.22
2023-07-04T05:19:52.398Z,99744.00
2023-07-04T05:21:24.814Z,99743.47
2023-07-04T05:22:57.907Z,99744.84
2023-07-04T05:24:31.305Z,99744.53
2023-07-04T05:26:10.397Z,99741.69
2023-07-04T05:27:43.432Z,99735.13
2023-07-04T05:29:15.386Z,99740.00
2023-07-04T05:30:47.386Z,99735.97
2023-07-04T05:32:19.520Z,99742.63
2023-07-04T05:33:52.428Z,99742.19
2023-07-04T05:35:24.415Z,99744.59
2023-07-04T05:36:56.494Z,99735.66
2023-07-04T05:38:28.520Z,99736.97
2023-07-04T05:40:00.536Z,99739.34
2023-07-04T05:41:33.057Z,99730.03
2023-07-04T05:43:05.136Z,99741.09
2023-07-04T05:44:37.335Z,99731.91
2023-07-04T05:46:10.013Z,99736.75
2023-07-04T05:47:42.065Z,99737.13
2023-07-04T05:49:14.157Z,99741.97
2023-07-04T05:50:52.845Z,99736.25
2023-07-04T05:52:25.655Z,99737.50
2023-07-04T05:53:57.646Z,99739.56
2023-07-04T05:55:31.113Z,99734.78
2023-07-04T05:57:05.321Z,99736.16
2023-07-04T05:58:37.793Z,99733.16
2023-07-04T06:00:11.379Z,99734.50
2023-07-04T06:01:44.309Z,99736.69
2023-07-04T06:03:19.460Z,99740.69
2023-07-04T06:04:51.732Z,99737.50
2023-07-04T06:06:23.781Z,99737.13
2023-07-04T06:07:55.761Z,99741.00
2023-07-04T06:09:27.836Z,99736.09
2023-07-04T06:11:00.658Z,99730.34
2023-07-04T06:12:33.372Z,99735.16
2023-07-04T06:14:05.896Z,99728.44
2023-07-04T06:15:41.843Z,99740.22
2023-07-04T06:17:16.987Z,99736.25
2023-07-04T06:18:48.961Z,99733.19
2023-07-04T06:20:21.736Z,99731.88
2023-07-04T06:21:54.355Z,99736.56
2023-07-04T06:23:26.578Z,99735.00
2023-07-04T06:24:58.504Z,99729.22
2023-07-04T06:26:33.673Z,99734.03
2023-07-04T06:28:16.337Z,99732.84
2023-07-04T06:29:49.177Z,99736.91
2023-07-04T06:31:21.407Z,99732.19
2023-07-04T06:32:53.431Z,99733.41
2023-07-04T06:34:25.546Z,99732.91
2023-07-04T06:35:57.594Z,99728.19
2023-07-04T06:37:29.529Z,99736.41
2023-07-04T06:39:02.137Z,99723.53
2023-07-04T06:40:34.146Z,99728.44
2023-07-04T06:42:06.333Z,99728.91
2023-07-04T06:43:42.023Z,99730.34
2023-07-04T06:45:14.188Z,99723.81
2023-07-04T06:46:46.293Z,99722.72
2023-07-04T06:48:18.299Z,99730.44
2023-07-04T06:49:50.286Z,99720.44
2023-07-04T06:53:08.810Z,99723.28
2023-07-04T06:54:40.905Z,99716.50
2023-07-04T06:56:16.870Z,99721.28
2023-07-04T06:57:50.236Z,99724.97
2023-07-04T06:59:22.387Z,99718.44
2023-07-04T07:00:57.817Z,99709.06
2023-07-04T07:02:29.919Z,99711.88
2023-07-04T07:04:02.234Z,99709.56
2023-07-04T07:05:38.276Z,99710.13
2023-07-04T07:07:11.205Z,99708.19
2023-07-04T07:08:43.292Z,99710.72
2023-07-04T07:10:15.378Z,99709.47
2023-07-04T07:11:47.453Z,99702.81
2023-07-04T07:13:19.437Z,99703.13
2023-07-04T07:14:51.686Z,99716.13
2023-07-04T07:16:24.660Z,99710.56
2023-07-04T07:17:56.852Z,99713.81
2023-07-04T07:19:28.916Z,99713.41
2023-07-04T07:21:01.117Z,99707.56
2023-07-04T07:22:33.054Z,99721.28
2023-07-04T07:24:05.232Z,99715.44
2023-07-04T07:25:37.725Z,99715.03
2023-07-04T07:27:10.198Z,99712.97
2023-07-04T07:28:42.338Z,99713.41
2023-07-04T07:30:14.404Z,99720.13
2023-07-04T07:31:47.012Z,99716.94
2023-07-04T07:33:19.687Z,99716.53
2023-07-04T07:34:51.879Z,99716.13
2023-07-04T07:36:24.765Z,99714.88
2023-07-04T07:37:56.725Z,99719.63
2023-07-04T07:39:28.822Z,99721.31
2023-07-04T07:41:00.829Z,99720.06
2023-07-04T07:42:32.890Z,99723.03
2023-07-04T07:44:05.523Z,99722.63
2023-07-04T07:45:37.852Z,99728.50
2023-07-04T07:47:11.851Z,99721.94
2023-07-04T07:48:44.225Z,99726.88
2023-07-04T07:50:16.389Z,99719.59
2023-07-04T07:51:48.396Z,99717.34
2023-07-04T07:53:20.399Z,99729.25
2023-07-04T07:54:52.411Z,99729.81
2023-07-04T07:56:25.615Z,99730.91
2023-07-04T07:57:59.231Z,99727.00
2023-07-04T07:59:33.168Z,99732.03
2023-07-04T08:01:22.045Z,99734.28
2023-07-04T08:02:54.190Z,99728.53
2023-07-04T08:04:27.276Z,99730.91
2023-07-04T08:05:59.303Z,99734.25
2023-07-04T08:07:31.277Z,99732.19
2023-07-04T08:09:05.014Z,99734.41
2023-07-04T08:10:43.548Z,99729.94
2023-07-04T08:12:15.502Z,99730.25
2023-07-04T08:13:47.843Z,99725.44
2023-07-04T08:15:20.021Z,99737.50
2023-07-04T08:16:52.874Z,99726.44
2023-07-04T08:18:25.903Z,99728.81
2023-07-04T08:19:58.078Z,99730.34
2023-07-04T08:21:30.540Z,99728.22
2023-07-04T08:23:02.586Z,99719.66
2023-07-04T08:24:34.658Z,99715.44
2023-07-04T08:26:06.670Z,99720.34
2023-07-04T08:27:38.768Z,99718.22
2023-07-04T08:29:15.814Z,99716.25
2023-07-04T08:30:47.817Z,99718.31
2023-07-04T08:32:20.248Z,99715.94
2023-07-04T08:33:52.277Z,99724.22
2023-07-04T08:35:24.535Z,99720.97
2023-07-04T08:36:56.815Z,99712.38
2023-07-04T08:38:29.076Z,99725.25
2023-07-04T08:40:01.135Z,99721.31
2023-07-04T08:41:48.146Z,99718.88
2023-07-04T08:43:21.409Z,99720.97
2023-07-04T08:44:55.805Z,99724.88
2023-07-04T08:46:37.880Z,99726.06
2023-07-04T08:48:10.531Z,99727.63
2023-07-04T08:49:52.825Z,99729.28
2023-07-04T08:51:29.460Z,99724.50
2023-07-04T08:53:03.956Z,99715.50
2023-07-04T08:54:35.999Z,99718.84
2023-07-04T08:56:14.691Z,99720.53
2023-07-04T08:57:54.172Z,99717.59
2023-07-04T08:59:41.191Z,99718.97
2023-07-04T09:01:14.920Z,99715.00
2023-07-04T09:03:02.593Z,99714.72
2023-07-04T09:04:37.988Z,99710.78
2023-07-04T09:07:54.860Z,99714.97
2023-07-04T09:09:31.058Z,99716.63
2023-07-04T09:11:04.716Z,99713.66
2023-07-04T09:12:37.278Z,99711.81
2023-07-04T09:14:10.994Z,99710.25
2023-07-04T09:15:47.139Z,99714.97
2023-07-04T09:17:24.901Z,99707.31
2023-07-04T09:18:58.435Z,99708.69
2023-07-04T09:20:33.782Z,99703.03
2023-07-04T09:22:06.428Z,99698.94
2023-07-04T09:23:38.499Z,99697.09
2023-07-04T09:25:11.011Z,99700.19
2023-07-04T09:26:51.593Z,99697.88
2023-07-04T09:28:23.581Z,99695.88
2023-07-04T09:29:55.562Z,99705.25
2023-07-04T09:31:31.277Z,99701.97
2023-07-04T09:33:04.155Z,99699.69
2023-07-04T09:34:43.019Z,99700.03
2023-07-04T09:36:15.353Z,99691.72
2023-07-04T09:38:02.996Z,99697.75
2023-07-04T09:41:27.078Z,99693.38
2023-07-04T09:42:59.207Z,99688.03
2023-07-04T09:44:31.849Z,99697.06
2023-07-04T09:46:30.320Z,99695.91
2023-07-04T09:48:02.473Z,99693.44
2023-07-04T09:49:36.826Z,99693.97
2023-07-04T09:53:13.669Z,99689.34
2023-07-04T09:54:45.792Z,99686.09
2023-07-04T09:56:27.730Z,99685.75
2023-07-04T09:58:18.929Z,99689.63
2023-07-04T09:59:54.472Z,99686.47
2023-07-04T10:01:27.480Z,99685.31
2023-07-04T10:03:05.624Z,99688.34
2023-07-04T10:04:37.984Z,99685.19
2023-07-04T10:06:13.008Z,99679.50
2023-07-04T10:07:45.030Z,99673.03
2023-07-04T10:09:20.650Z,99674.38
2023-07-04T10:10:56.581Z,99669.69
2023-07-04T10:12:31.191Z,99670.88
2023-07-04T10:14:08.721Z,99662.53
2023-07-04T10:15:45.292Z,99661.22
2023-07-04T10:17:22.633Z,99663.25
2023-07-04T10:19:03.603Z,99660.09
2023-07-04T10:20:43.311Z,99656.94
2023-07-04T10:22:23.564Z,99653.06
2023-07-04T10:23:55.716Z,99654.41
2023-07-04T10:25:28.718Z,99646.25
2023-07-04T10:27:02.128Z,99648.75
2023-07-04T10:28:34.978Z,99655.59
2023-07-04T10:30:07.791Z,99650.78
2023-07-04T10:31:39.920Z,99649.44
2023-07-04T10:33:16.890Z,99652.78
2023-07-04T10:34:49.796Z,99652.44
2023-07-04T10:36:25.343Z,99645.75
2023-07-04T10:37:59.457Z,99650.13
2023-07-04T10:39:34.248Z,99640.09
2023-07-04T10:41:11.101Z,99641.75
2023-07-04T10:42:46.135Z,99645.09
2023-07-04T10:44:20.657Z,99639.06
2023-07-04T10:46:01.269Z,99640.75
2023-07-04T10:47:35.877Z,99642.25
2023-07-04T10:49:08.238Z,99643.75
2023-07-04T10:52:15.832Z,99638.25
2023-07-04T10:53:47.919Z,99643.59
2023-07-04T10:55:30.855Z,99638.91
2023-07-04T10:57:06.531Z,99638.56
2023-07-04T10:58:39.835Z,99634.06
2023-07-04T11:00:12.073Z,99630.06
2023-07-04T11:01:53.245Z,99623.56
2023-07-04T11:03:28.188Z,99625.56
2023-07-04T11:05:09.782Z,99627.06
2023-07-04T11:06:43.722Z,99630.41
2023-07-04T11:08:17.176Z,99623.03
2023-07-04T11:09:49.297Z,99622.03
2023-07-04T11:11:25.803Z,99621.88
2023-07-04T11:12:58.271Z,99612.84
2023-07-04T11:14:30.454Z,99612.66
2023-07-04T11:16:05.127Z,99602.47
2023-07-04T11:17:37.301Z,99602.97
2023-07-04T11:19:29.710Z,99604.97
2023-07-04T11:21:12.518Z,99602.44
2023-07-04T11:23:04.231Z,99610.09
2023-07-04T11:24:38.568Z,99601.25
2023-07-04T11:26:10.735Z,99607.41
2023-07-04T11:27:42.681Z,99606.28
2023-07-04T11:29:17.796Z,99608.59
2023-07-04T11:30:51.407Z,99604.44
2023-07-04T11:32:27.960Z,99598.06
2023-07-04T11:33:59.981Z,99596.91
2023-07-04T11:35:33.213Z,99592.88
2023-07-04T11:37:06.832Z,99598.72
2023-07-04T11:38:43.221Z,99601.06
2023-07-04T11:40:29.958Z,99590.19
2023-07-04T11:42:18.276Z,99596.88
2023-07-04T11:43:50.262Z,99590.47
2023-07-04T11:45:26.617Z,99591.66
2023-07-04T11:46:59.928Z,99589.16
2023-07-04T11:48:33.329Z,99584.47
2023-07-04T11:50:09.038Z,99588.84
2023-07-04T11:51:41.260Z,99582.28
2023-07-04T11:53:17.097Z,99582.63
2023-07-04T11:54:58.637Z,99572.75
2023-07-04T11:56:30.750Z,99576.28
2023-07-04T11:58:08.720Z,99578.59
2023-07-04T11:59:43.372Z,99581.63
2023-07-04T12:01:16.494Z,99583.94
2023-07-04T12:02:48.547Z,99577.41
2023-07-04T12:04:24.891Z,99580.75
2023-07-04T12:05:58.229Z,99579.09
2023-07-04T12:07:39.347Z,99575.72
2023-07-04T12:09:12.810Z,99570.34
2023-07-04T12:10:44.929Z,99560.13
2023-07-04T12:12:17.925Z,99565.13
2023-07-04T12:13:50.885Z,99569.66
2023-07-04T12:15:27.549Z,99564.31
2023-07-04T12:17:00.926Z,99571.97
2023-07-04T12:18:36.452Z,99568.28
2023-07-04T12:20:11.464Z,99565.25
2023-07-04T12:21:45.999Z,99565.56
2023-07-04T12:23:18.206Z,99572.41
2023-07-04T12:24:50.649Z,99568.38
2023-07-04T12:26:25.604Z,99559.69
2023-07-04T12:27:59.849Z,99566.69
2023-07-04T12:31:41.069Z,99561.22
2023-07-04T12:33:04.708Z,99558.41
2023-07-04T12:36:16.254Z,99560.16
2023-07-04T12:37:49.052Z,99561.53
2023-07-04T12:39:22.850Z,99560.69
2023-07-04T12:40:55.217Z,99566.53
2023-07-04T12:42:29.544Z,99554.63
2023-07-04T12:45:37.968Z,99547.53
2023-07-04T12:50:21.621Z,99549.78
2023-07-04T12:51:53.658Z,99545.91
2023-07-04T12:53:25.830Z,99545.56
2023-07-04T12:54:58.022Z,99545.41
2023-07-04T12:56:30.265Z,99539.34
2023-07-04T12:58:02.680Z,99539.66
2023-07-04T12:59:38.013Z,99539.97
2023-07-04T13:01:11.988Z,99530.91
2023-07-04T13:02:46.352Z,99528.06
2023-07-04T13:04:19.734Z,99526.03
2023-07-04T13:05:52.838Z,99530.19
2023-07-04T13:07:25.532Z,99527.34
2023-07-04T13:08:58.857Z,99523.47
2023-07-04T13:10:32.244Z,99517.28
2023-07-04T13:12:04.436Z,99519.94
2023-07-04T13:13:39.976Z,99516.25
2023-07-04T13:15:13.660Z,99506.56
2023-07-04T13:16:45.723Z,99517.06
2023-07-04T13:18:20.798Z,99517.06
2023-07-04T13:19:52.784Z,99520.28
2023-07-04T13:21:24.781Z,99521.31
2023-07-04T13:26:20.612Z,99511.97
2023-07-04T13:27:55.671Z,99506.44
2023-07-04T13:33:00.895Z,99504.28
2023-07-04T13:34:33.092Z,99506.97
2023-07-04T13:36:09.224Z,99499.56
2023-07-04T13:40:52.749Z,99496.88
2023-07-04T13:42:24.920Z,99501.09
2023-07-04T13:45:33.039Z,99494.69
2023-07-04T13:47:05.485Z,99489.16
2023-07-04T13:48:37.446Z,99493.69
2023-07-04T13:50:15.624Z,99492.84
2023-07-04T13:51:47.826Z,99483.63
2023-07-04T13:53:19.844Z,99485.09
2023-07-04T13:54:51.887Z,99486.59
2023-07-04T13:56:24.055Z,99482.03
2023-07-04T13:57:56.862Z,99485.75
2023-07-04T13:59:28.840Z,99492.28
2023-07-04T14:05:49.460Z,99469.56
2023-07-04T14:07:26.485Z,99474.72
2023-07-04T14:08:58.799Z,99470.41
2023-07-04T14:10:34.339Z,99466.69
2023-07-04T14:12:07.253Z,99464.22
2023-07-04T14:13:39.491Z,99460.38
2023-07-04T14:17:26.783Z,99460.28
2023-07-04T14:20:13.919Z,99469.97
2023-07-04T14:21:46.187Z,99460.94
2023-07-04T14:23:18.503Z,99463.63
2023-07-04T14:24:52.974Z,99455.75
2023-07-04T14:26:24.958Z,99463.97
2023-07-04T14:27:57.079Z,99455.94
2023-07-04T14:29:29.092Z,99465.28
2023-07-04T14:31:01.314Z,99465.75
2023-07-04T14:32:36.845Z,99464.56
2023-07-04T14:34:08.951Z,99462.53
2023-07-04T14:35:43.364Z,99454.84
2023-07-04T14:37:15.401Z,99460.88
2023-07-04T14:38:47.424Z,99452.19
2023-07-04T14:42:29.560Z,99450.16
2023-07-04T14:42:31.103Z,99451.81
2023-07-04T14:44:03.600Z,99445.44
2023-07-04T14:45:35.883Z,99435.72
2023-07-04T14:47:08.245Z,99442.13
2023-07-04T14:48:41.224Z,99435.25
2023-07-04T14:50:13.293Z,99431.09
2023-07-04T14:51:47.614Z,99435.97
2023-07-04T14:53:19.592Z,99442.53
2023-07-04T14:54:51.906Z,99431.13
2023-07-04T14:56:33.409Z,99430.47
2023-07-04T14:58:13.101Z,99428.81
2023-07-04T14:59:45.509Z,99429.97
2023-07-04T15:01:19.438Z,99432.88
2023-07-04T15:02:51.616Z,99426.47
2023-07-04T15:04:24.460Z,99423.81
2023-07-04T15:05:59.741Z,99429.16
2023-07-04T15:07:31.772Z,99420.28
2023-07-04T15:09:04.279Z,99422.16
2023-07-04T15:10:38.625Z,99415.94
2023-07-04T15:12:10.846Z,99417.31
2023-07-04T15:13:42.936Z,99415.66
2023-07-04T15:15:15.085Z,99417.84
2023-07-04T15:16:47.137Z,99414.53
2023-07-04T15:18:19.227Z,99415.53
2023-07-04T15:19:51.215Z,99411.19
2023-07-04T15:21:24.206Z,99412.88
2023-07-04T15:22:56.570Z,99420.41
2023-07-04T15:24:28.936Z,99425.94
2023-07-04T15:26:15.314Z,99416.25
2023-07-04T15:27:54.038Z,99412.09
2023-07-04T15:29:26.034Z,99414.28
2023-07-04T15:30:58.361Z,99416.31
2023-07-04T15:32:30.419Z,99414.63
2023-07-04T15:34:02.643Z,99414.63
2023-07-04T15:35:34.805Z,99416.31
2023-07-04T15:37:08.651Z,99415.66
2023-07-04T15:38:41.348Z,99410.66
2023-07-04T15:40:13.652Z,99411.69
2023-07-04T15:41:45.630Z,99416.22
2023-07-04T15:43:18.511Z,99408.16
2023-07-04T15:44:50.789Z,99415.34
2023-07-04T15:46:24.495Z,99412.66
2023-07-04T15:47:58.489Z,99414.34
2023-07-04T15:49:30.441Z,99408.34
2023-07-04T15:51:02.690Z,99414.69
2023-07-04T15:52:34.669Z,99402.97
2023-07-04T15:54:06.938Z,99414.03
2023-07-04T15:55:39.328Z,99409.41
2023-07-04T15:57:11.231Z,99408.91
2023-07-04T15:58:43.234Z,99411.75
2023-07-04T16:00:17.522Z,99400.22
2023-07-04T16:03:21.591Z,99404.91
2023-07-04T16:04:53.906Z,99407.75
2023-07-04T16:06:25.889Z,99402.41
2023-07-04T16:07:58.036Z,99403.22
2023-07-04T16:09:30.041Z,99405.75
2023-07-04T16:11:03.122Z,99407.22
2023-07-04T16:12:35.094Z,99400.72
2023-07-04T16:14:07.114Z,99402.50
2023-07-04T16:15:39.350Z,99405.28
2023-07-04T16:17:11.425Z,99394.53
2023-07-04T16:18:43.697Z,99395.31
2023-07-04T16:20:15.733Z,99394.97
2023-07-04T16:21:47.820Z,99393.56
2023-07-04T16:23:19.919Z,99395.34
2023-07-04T16:24:51.947Z,99397.84
2023-07-04T16:26:25.952Z,99398.75
2023-07-04T16:27:58.877Z,99395.75
2023-07-04T16:29:31.294Z,99398.13
2023-07-04T16:31:05.342Z,99402.03
2023-07-04T16:32:37.325Z,99400.72
2023-07-04T16:34:09.451Z,99400.06
2023-07-04T16:35:41.992Z,99400.88
2023-07-04T16:37:13.984Z,99409.41
2023-07-04T16:38:45.923Z,99416.91
2023-07-04T16:40:17.920Z,99409.00
2023-07-04T16:41:49.946Z,99419.28
2023-07-04T16:43:22.201Z,99409.75
2023-07-04T16:44:54.173Z,99412.66
2023-07-04T16:46:26.419Z,99409.19
2023-07-04T16:48:01.356Z,99418.88
2023-07-04T16:49:33.446Z,99420.06
2023-07-04T16:51:05.550Z,99429.88
2023-07-04T16:52:37.586Z,99432.00
2023-07-04T16:54:09.671Z,99431.53
2023-07-04T16:55:41.987Z,99437.94
2023-07-04T16:57:14.341Z,99431.75
2023-07-04T16:58:47.781Z,99434.78
2023-07-04T17:00:19.975Z,99434.59
2023-07-04T17:01:52.277Z,99440.22
2023-07-04T17:03:24.445Z,99443.84
2023-07-04T17:04:56.549Z,99435.63
2023-07-04T17:06:28.602Z,99440.53
2023-07-04T17:08:00.632Z,99440.16
2023-07-04T17:09:35.043Z,99442.59
2023-07-04T17:11:07.795Z,99446.13
2023-07-04T17:12:42.626Z,99439.47
2023-07-04T17:14:14.682Z,99441.31
2023-07-04T17:15:51.519Z,99450.66
2023-07-04T17:17:24.006Z,99447.09
2023-07-04T17:18:56.082Z,99442.50
2023-07-04T17:20:28.068Z,99445.91
2023-07-04T17:22:03.060Z,99452.66
2023-07-04T17:23:35.083Z,99451.06
2023-07-04T17:25:14.530Z,99457.31
2023-07-04T17:26:47.080Z,99457.84
2023-07-04T17:28:19.344Z,99461.91
2023-07-04T17:29:51.351Z,99453.44
2023-07-04T17:31:23.429Z,99456.25
2023-07-04T17:32:55.479Z,99457.94
2023-07-04T17:34:29.405Z,99458.75
2023-07-04T17:36:05.521Z,99462.03
2023-07-04T17:37:37.561Z,99463.34
2023-07-04T17:39:09.603Z,99465.50
2023-07-04T17:40:41.641Z,99467.47
2023-07-04T17:42:13.648Z,99472.94
2023-07-04T17:43:45.783Z,99468.03
2023-07-04T17:45:18.021Z,99468.28
2023-07-04T17:46:50.696Z,99462.22
2023-07-04T17:48:22.664Z,99462.66
2023-07-04T17:49:55.703Z,99474.44
2023-07-04T17:51:28.493Z,99470.38
2023-07-04T17:53:00.562Z,99470.47
2023-07-04T17:54:32.645Z,99469.53
2023-07-04T17:56:05.860Z,99478.47
2023-07-04T17:57:37.834Z,99480.53
2023-07-04T17:59:09.977Z,99488.44
2023-07-04T18:00:42.037Z,99489.25
2023-07-04T18:02:14.094Z,99483.84
2023-07-04T18:03:46.490Z,99487.34
2023-07-04T18:05:18.580Z,99484.78
2023-07-04T18:06:52.040Z,99491.81
2023-07-04T18:08:24.341Z,99491.91
2023-07-04T18:09:59.613Z,99494.63
2023-07-04T18:11:31.682Z,99494.53
2023-07-04T18:13:03.810Z,99494.41
2023-07-04T18:14:35.941Z,99500.47
2023-07-04T18:16:08.113Z,99508.34
2023-07-04T18:17:40.360Z,99499.56
2023-07-04T18:19:12.410Z,99506.28
2023-07-04T18:20:44.511Z,99517.50
2023-07-04T18:22:16.604Z,99511.94
2023-07-04T18:23:50.581Z,99516.13
2023-07-04T18:25:22.903Z,99512.53
2023-07-04T18:26:54.958Z,99513.91
2023-07-04T18:28:27.315Z,99519.81
2023-07-04T18:29:59.347Z,99517.72
2023-07-04T18:31:31.678Z,99517.16
2023-07-04T18:33:03.802Z,99525.56
2023-07-04T18:34:36.045Z,99526.13
2023-07-04T18:36:18.415Z,99524.16
2023-07-04T18:37:50.572Z,99530.31
2023-07-04T18:39:22.680Z,99528.47
2023-07-04T18:40:54.975Z,99529.59
2023-07-04T18:42:27.203Z,99529.88
2023-07-04T18:43:59.159Z,99525.81
2023-07-04T18:45:31.115Z,99537.56
2023-07-04T18:47:03.302Z,99537.13
2023-07-04T18:48:36.302Z,99536.94
2023-07-04T18:50:08.566Z,99548.94
2023-07-04T18:51:40.700Z,99548.78
2023-07-04T18:53:12.691Z,99550.16
2023-07-04T18:54:44.674Z,99551.56
2023-07-04T18:56:16.671Z,99549.31
2023-07-04T18:57:48.721Z,99557.66
2023-07-04T18:59:20.738Z,99554.59
2023-07-04T19:00:53.166Z,99554.00
2023-07-04T19:02:25.501Z,99547.41
2023-07-04T19:03:58.127Z,99551.31
2023-07-04T19:05:32.681Z,99559.66
2023-07-04T19:07:04.913Z,99561.88
2023-07-04T19:08:37.032Z,99554.44
2023-07-04T19:10:09.112Z,99563.63
2023-07-04T19:11:41.972Z,99560.38
2023-07-04T19:13:15.828Z,99566.09
2023-07-04T19:14:47.995Z,99566.50
2023-07-04T19:16:20.112Z,99570.50
2023-07-04T19:17:52.681Z,99573.53
2023-07-04T19:19:24.941Z,99571.28
2023-07-04T19:21:00.278Z,99577.94
2023-07-04T19:22:32.336Z,99569.50
2023-07-04T19:24:04.519Z,99566.44
2023-07-04T19:25:38.348Z,99561.53
2023-07-04T19:27:16.202Z,99566.22
2023-07-04T19:28:48.603Z,99563.13
2023-07-04T19:30:20.589Z,99569.50
2023-07-04T19:31:53.336Z,99582.00